Time;durP1;ratioP1;P1;durP2;ratioP2;P2;SDS_P1;SDS_P2;PMS_P1;PMS_P2;Temp;Humidity;BMP_temperature;BMP_pressure;BME280_temperature;BME280_humidity;BME280_pressure;Samples;Min_cycle;Max_cycle;Signal;HPM_P1;HPM_P2
2022/06/30 00:01:55;;;;;;;12.85;11.10;;;17.50;99.90;;;-144.05;82.57;125687.94;6103325;23;20032;-87
2022/06/30 00:04:21;;;;;;;13.18;11.30;;;17.50;99.90;;;-144.05;82.81;125687.94;6102938;23;20380;-87
2022/06/30 00:06:47;;;;;;;13.23;11.82;;;17.40;99.90;;;-144.05;82.96;125687.94;6103502;23;20006;-87
2022/06/30 00:09:13;;;;;;;13.45;11.63;;;17.40;99.90;;;-144.05;83.00;125687.94;6109254;23;20020;-87
2022/06/30 00:11:40;;;;;;;15.10;12.05;;;17.30;99.90;;;-144.05;83.22;125687.94;6116586;23;20156;-88
2022/06/30 00:14:06;;;;;;;14.68;12.10;;;17.30;99.90;;;-144.05;83.57;125687.94;6104956;23;20010;-87
2022/06/30 00:16:32;;;;;;;15.70;11.98;;;17.20;99.90;;;-144.05;83.89;125687.94;6129172;23;20336;-89
2022/06/30 00:18:58;;;;;;;15.40;13.77;;;17.20;99.90;;;-144.05;84.54;125687.94;6129344;23;20057;-90
2022/06/30 00:21:24;;;;;;;15.13;13.02;;;17.20;99.90;;;-144.05;84.36;125687.94;6128978;23;20010;-88
2022/06/30 00:23:50;;;;;;;14.15;12.65;;;17.10;99.90;;;-144.05;84.37;125687.94;6105869;23;20013;-89
2022/06/30 00:26:16;;;;;;;17.15;13.80;;;17.10;99.90;;;-144.05;84.51;125687.94;6105122;23;20014;-88
2022/06/30 00:28:42;;;;;;;14.70;13.20;;;17.10;99.90;;;-144.05;84.76;125687.94;6132373;23;20012;-88
2022/06/30 00:31:09;;;;;;;16.52;12.60;;;17.10;99.90;;;-144.05;84.57;125687.94;6106018;23;20015;-89
2022/06/30 00:33:35;;;;;;;14.13;12.32;;;17.00;99.90;;;-144.05;84.63;125687.94;6105988;23;20040;-89
2022/06/30 00:36:01;;;;;;;14.25;12.48;;;17.00;99.90;;;-144.05;84.55;125687.94;6106489;23;20006;-88
2022/06/30 00:38:27;;;;;;;15.50;13.73;;;17.00;99.90;;;-144.05;85.15;125687.94;6107392;23;20429;-89
2022/06/30 00:40:52;;;;;;;17.77;14.00;;;17.00;99.90;;;-144.05;85.40;125687.94;6107692;23;20424;-91
2022/06/30 00:43:19;;;;;;;16.75;12.95;;;16.90;99.90;;;-144.05;85.60;125687.94;6133840;23;20006;-90
2022/06/30 00:45:48;;;;;;;14.88;12.40;;;16.90;99.90;;;-144.05;85.61;125687.94;6109347;23;20002;-90
2022/06/30 00:48:18;;;;;;;14.27;12.52;;;16.90;99.90;;;-144.05;85.52;125687.94;6107737;23;20006;-89
2022/06/30 00:50:45;;;;;;;15.30;13.10;;;16.80;99.90;;;-144.05;85.37;125687.94;6106627;23;20033;-87
2022/06/30 00:53:12;;;;;;;17.95;14.02;;;16.70;99.90;;;-144.05;85.50;125687.94;6106288;23;20002;-89
2022/06/30 00:55:39;;;;;;;18.92;13.95;;;16.70;99.90;;;-144.05;86.00;125687.94;6104175;23;20013;-88
2022/06/30 00:58:08;;;;;;;18.40;15.27;;;16.60;99.90;;;-144.05;86.59;125687.94;6104853;23;20468;-89
2022/06/30 01:00:40;;;;;;;19.38;13.93;;;16.70;99.90;;;-144.05;86.45;125687.94;6104525;23;20017;-88
2022/06/30 01:03:09;;;;;;;15.57;13.38;;;16.70;99.90;;;-144.05;86.39;125687.94;6104524;23;20006;-89
2022/06/30 01:05:36;;;;;;;16.95;14.52;;;16.70;99.90;;;-144.05;86.81;125687.94;6104545;23;20013;-90
2022/06/30 01:08:05;;;;;;;16.63;13.82;;;16.70;99.90;;;-144.05;86.74;125687.94;6130243;23;20421;-89
2022/06/30 01:13:16;;;;;;;18.30;14.05;;;16.70;99.90;;;-144.05;86.83;125687.94;6131053;23;20439;-87
2022/06/30 01:15:42;;;;;;;15.95;13.55;;;16.60;99.90;;;-144.05;87.02;125687.94;6105094;23;20006;-90
2022/06/30 01:18:09;;;;;;;14.88;13.27;;;16.60;99.90;;;-144.05;87.04;125687.94;6105047;23;20034;-87
2022/06/30 01:20:35;;;;;;;17.63;14.98;;;16.60;99.90;;;-144.05;87.05;125687.94;6104644;23;20085;-88
2022/06/30 01:23:04;;;;;;;19.85;14.23;;;16.50;99.90;;;-144.05;87.37;125687.94;6105239;23;20021;-90
2022/06/30 01:25:33;;;;;;;16.30;13.63;;;16.50;99.90;;;-144.05;87.55;125687.94;6105442;23;20017;-90
2022/06/30 01:28:00;;;;;;;17.52;13.55;;;16.50;99.90;;;-144.05;87.43;125687.94;6105848;23;20455;-88
2022/06/30 01:30:27;;;;;;;16.63;13.15;;;16.40;99.90;;;-144.05;87.37;125687.94;6105369;23;20101;-90
2022/06/30 01:32:53;;;;;;;17.80;14.82;;;16.30;99.90;;;-144.05;87.47;125687.94;6104148;23;20006;-86
2022/06/30 01:35:19;;;;;;;14.90;13.32;;;16.30;99.90;;;-144.05;87.47;125687.94;6105180;23;20010;-86
2022/06/30 01:37:53;;;;;;;16.95;13.95;;;16.30;99.90;;;-144.05;87.52;125687.94;6106231;23;20053;-85
2022/06/30 01:40:22;;;;;;;18.95;15.30;;;16.20;99.90;;;-144.05;87.97;125687.94;6114576;23;20013;-89
2022/06/30 01:42:48;;;;;;;19.08;14.77;;;16.30;99.90;;;-144.05;87.98;125687.94;6114246;23;20014;-90
2022/06/30 01:45:15;;;;;;;19.08;15.68;;;16.20;99.90;;;-144.05;88.20;125687.94;6103651;23;20092;-89
2022/06/30 01:47:41;;;;;;;17.73;15.88;;;16.30;99.90;;;-144.05;88.68;125687.94;6103948;23;20041;-89
2022/06/30 01:50:35;;;;;;;19.00;15.20;;;16.40;99.90;;;-144.05;88.38;125687.94;6103054;23;20010;-91
2022/06/30 01:53:03;;;;;;;19.13;14.63;;;16.40;99.90;;;-144.05;88.26;125687.94;6102838;23;20017;-89
2022/06/30 01:55:30;;;;;;;15.25;13.65;;;16.30;99.90;;;-144.05;88.01;125687.94;6103229;23;20088;-90
2022/06/30 01:57:56;;;;;;;17.25;13.57;;;16.20;99.90;;;-144.05;88.17;125687.94;6103497;23;20006;-89
2022/06/30 02:00:26;;;;;;;17.48;15.25;;;16.20;99.90;;;-144.05;88.43;125687.94;6103983;23;20041;-90
2022/06/30 02:02:54;;;;;;;14.93;13.30;;;16.10;99.90;;;-144.05;88.37;125687.94;6103698;23;20017;-87
2022/06/30 02:05:22;;;;;;;20.90;14.57;;;16.10;99.90;;;-144.05;88.34;125687.94;6129934;23;20016;-89
2022/06/30 02:07:48;;;;;;;18.77;16.77;;;16.00;99.90;;;-144.05;88.82;125687.94;6103824;23;20321;-86
2022/06/30 02:10:21;;;;;;;17.38;15.05;;;16.10;99.90;;;-144.05;88.63;125687.94;6103750;23;20042;-88
2022/06/30 02:12:48;;;;;;;20.30;15.35;;;16.10;99.90;;;-144.05;88.66;125687.94;6103747;23;20336;-88
2022/06/30 02:15:36;;;;;;;20.00;15.55;;;16.10;99.90;;;-144.05;88.68;125687.94;6128340;23;20020;-89
2022/06/30 02:18:07;;;;;;;18.85;15.70;;;16.00;99.90;;;-144.05;88.67;125687.94;6104553;23;20029;-89
2022/06/30 02:20:34;;;;;;;17.45;14.65;;;16.10;99.90;;;-144.05;88.33;125687.94;6129541;23;20014;-88
2022/06/30 02:23:04;;;;;;;20.52;14.60;;;16.00;99.90;;;-144.05;88.17;125687.94;6116372;23;20061;-88
2022/06/30 02:25:32;;;;;;;15.30;12.50;;;16.00;99.90;;;-144.05;88.08;125687.94;6110135;23;20014;-90
2022/06/30 02:28:01;;;;;;;17.02;13.70;;;15.90;99.90;;;-144.05;88.23;125687.94;6103100;23;20097;-88
2022/06/30 02:30:28;;;;;;;15.82;13.80;;;15.90;99.90;;;-144.05;88.18;125687.94;6103227;23;20010;-88
2022/06/30 02:32:54;;;;;;;18.55;16.10;;;15.80;99.90;;;-144.05;88.56;125687.94;6103348;23;20014;-90
2022/06/30 02:35:21;;;;;;;19.73;16.20;;;15.80;99.90;;;-144.05;88.96;125687.94;6128913;23;20008;-90
2022/06/30 02:37:47;;;;;;;19.10;15.75;;;15.80;99.90;;;-144.05;89.02;125687.94;6103122;23;20006;-90
2022/06/30 02:40:15;;;;;;;18.50;16.17;;;15.80;99.90;;;-144.05;89.15;125687.94;6129090;23;20468;-88
2022/06/30 02:42:43;;;;;;;16.98;14.70;;;15.90;99.90;;;-144.05;89.07;125687.94;6104172;23;20096;-88
2022/06/30 02:45:10;;;;;;;15.98;14.23;;;15.80;99.90;;;-144.05;89.18;125687.94;6129834;23;20016;-88
2022/06/30 02:47:42;;;;;;;16.20;13.82;;;15.70;99.90;;;-144.05;89.23;125687.94;6104481;23;20010;-87
2022/06/30 02:50:12;;;;;;;17.58;14.05;;;15.70;99.90;;;-144.05;89.12;125687.94;6105210;23;20010;-88
2022/06/30 02:52:39;;;;;;;17.92;13.52;;;15.60;99.90;;;-144.05;89.26;125687.94;6105224;23;20013;-91
2022/06/30 02:55:08;;;;;;;17.73;15.82;;;15.60;99.90;;;-144.05;89.43;125687.94;6131561;23;20364;-88
2022/06/30 02:57:37;;;;;;;19.35;16.95;;;15.60;99.90;;;-144.05;89.70;125687.94;6105712;23;20006;-91
2022/06/30 03:00:09;;;;;;;18.08;15.43;;;15.70;99.90;;;-144.05;89.65;125687.94;6106309;23;20006;-89
2022/06/30 03:02:36;;;;;;;15.63;13.27;;;15.70;99.90;;;-144.05;89.39;125687.94;6108027;23;20006;-91
2022/06/30 03:05:04;;;;;;;16.92;14.73;;;15.60;99.90;;;-144.05;89.82;125687.94;6106939;23;20114;-90
2022/06/30 03:07:30;;;;;;;17.42;14.75;;;15.60;99.90;;;-144.05;89.41;125687.94;6105311;23;20020;-90
2022/06/30 03:09:56;;;;;;;15.18;13.30;;;15.50;99.90;;;-144.05;89.28;125687.94;6130675;23;20009;-90
2022/06/30 03:12:22;;;;;;;13.82;12.38;;;15.40;99.90;;;-144.05;89.51;125687.94;6105365;23;20037;-89
2022/06/30 03:14:48;;;;;;;14.10;12.52;;;15.20;99.90;;;-144.05;89.44;125687.94;6104169;23;20044;-89
2022/06/30 03:17:14;;;;;;;16.67;13.52;;;15.20;99.90;;;-144.05;89.44;125687.94;6105355;23;20005;-88
2022/06/30 03:19:40;;;;;;;19.88;14.20;;;15.20;99.90;;;-144.05;89.43;125687.94;6105572;23;20013;-89
2022/06/30 03:22:06;;;;;;;17.00;14.25;;;15.10;99.90;;;-144.05;89.48;125687.94;6104915;23;20065;-88
2022/06/30 03:24:31;;;;;;;17.05;14.27;;;15.10;99.90;;;-144.05;89.48;125687.94;6102388;23;20010;-88
2022/06/30 03:26:57;;;;;;;19.30;14.77;;;15.10;99.90;;;-144.05;89.69;125687.94;6130178;23;20017;-87
2022/06/30 03:29:23;;;;;;;20.35;17.13;;;15.10;99.90;;;-144.05;89.96;125687.94;6103860;23;20005;-88
2022/06/30 03:31:49;;;;;;;25.70;17.80;;;15.20;99.90;;;-144.05;89.79;125687.94;6130431;23;20006;-89
2022/06/30 03:34:15;;;;;;;22.15;17.48;;;15.20;99.90;;;-144.05;90.11;125687.94;6128253;23;20451;-90
2022/06/30 03:36:41;;;;;;;22.38;16.20;;;15.30;99.90;;;-144.05;89.96;125687.94;6102232;23;20089;-89
2022/06/30 03:39:08;;;;;;;22.73;16.90;;;15.30;99.90;;;-144.05;90.14;125687.94;6104030;23;20058;-86
2022/06/30 03:41:34;;;;;;;21.48;15.88;;;15.30;99.90;;;-144.05;90.24;125687.94;6130337;23;20017;-86
2022/06/30 03:44:00;;;;;;;20.90;15.15;;;15.30;99.90;;;-144.05;90.27;125687.94;6103973;23;20096;-89
2022/06/30 03:46:26;;;;;;;18.48;16.42;;;15.30;99.90;;;-144.05;90.35;125687.94;6104113;23;20029;-84
2022/06/30 03:48:52;;;;;;;17.23;14.95;;;15.30;99.90;;;-144.05;90.39;125687.94;6131480;23;20443;-87
2022/06/30 03:51:18;;;;;;;18.85;15.88;;;15.30;99.90;;;-144.05;90.36;125687.94;6104557;23;20436;-88
2022/06/30 03:53:44;;;;;;;17.63;14.90;;;15.30;99.90;;;-144.05;90.51;125687.94;6103904;23;20088;-88
2022/06/30 03:56:10;;;;;;;20.55;15.80;;;15.30;99.90;;;-144.05;90.49;125687.94;6104823;23;20018;-88
2022/06/30 03:58:36;;;;;;;19.05;15.77;;;15.30;99.90;;;-144.05;90.45;125687.94;6105171;23;20006;-88
2022/06/30 04:01:02;;;;;;;20.65;15.32;;;15.30;99.90;;;-144.05;90.37;125687.94;6105435;23;20478;-88
2022/06/30 04:03:28;;;;;;;18.55;16.05;;;15.30;99.90;;;-144.05;90.47;125687.94;6106636;23;20025;-88
2022/06/30 04:05:54;;;;;;;18.50;14.73;;;15.40;99.90;;;-144.05;90.45;125687.94;6105739;23;20062;-87
2022/06/30 04:08:20;;;;;;;19.75;17.50;;;15.40;99.90;;;-144.05;90.87;125687.94;6106655;23;20014;-89
2022/06/30 04:10:46;;;;;;;20.08;16.30;;;15.40;99.90;;;-144.05;90.72;125687.94;6131938;23;20037;-88
2022/06/30 04:13:12;;;;;;;18.50;15.35;;;15.50;99.90;;;-144.05;90.79;125687.94;6106233;23;20070;-86
2022/06/30 04:15:38;;;;;;;24.02;17.27;;;15.50;99.90;;;-144.05;90.83;125687.94;6106646;23;20348;-90
2022/06/30 04:18:04;;;;;;;20.60;17.00;;;15.60;99.90;;;-144.05;90.83;125687.94;6106171;23;20377;-87
2022/06/30 04:20:30;;;;;;;23.20;16.42;;;15.60;99.90;;;-144.05;90.76;125687.94;6107275;23;20012;-88
2022/06/30 04:22:56;;;;;;;22.30;16.65;;;15.60;99.90;;;-144.05;90.62;125687.94;6107955;23;20092;-87
2022/06/30 04:25:22;;;;;;;19.35;16.52;;;15.70;99.90;;;-144.05;90.78;125687.94;6110234;23;20018;-88
2022/06/30 04:27:56;;;;;;;21.95;17.15;;;15.70;99.90;;;-144.05;90.87;125687.94;6110619;23;20014;-87
2022/06/30 04:33:08;;;;;;;21.88;17.58;;;15.80;99.90;;;-144.05;90.99;125687.94;6136462;23;20033;-84
2022/06/30 04:35:36;;;;;;;18.17;16.27;;;16.00;99.90;;;-144.05;90.77;125687.94;6109212;23;20021;-86
2022/06/30 04:38:04;;;;;;;22.88;18.38;;;16.10;99.90;;;-144.05;90.70;125687.94;6109954;23;20002;-88
2022/06/30 04:43:15;;;;;;;21.52;17.33;;;16.40;99.90;;;-144.05;90.47;125687.94;6132016;23;20114;-84
2022/06/30 04:45:42;;;;;;;20.35;15.98;;;16.40;99.90;;;-144.05;90.50;125687.94;6106830;23;20497;-87
2022/06/30 04:48:09;;;;;;;21.65;16.77;;;16.60;99.90;;;-144.05;90.36;125687.94;6106799;23;20006;-86
2022/06/30 04:50:35;;;;;;;19.08;15.73;;;16.70;99.90;;;-144.05;89.76;125687.94;6105438;23;20092;-86
2022/06/30 04:53:01;;;;;;;18.08;16.10;;;16.90;99.90;;;-144.05;89.49;125687.94;6107032;23;20440;-87
2022/06/30 04:55:28;;;;;;;17.65;14.85;;;17.10;99.90;;;-144.05;89.07;125687.94;6106815;23;20436;-86
2022/06/30 04:57:53;;;;;;;17.80;14.00;;;17.30;99.90;;;-144.05;88.75;125687.94;6107579;23;20420;-82
2022/06/30 05:00:19;;;;;;;16.13;14.40;;;17.50;99.90;;;-144.05;88.06;125687.94;6108205;23;20006;-88
2022/06/30 05:02:45;;;;;;;15.85;14.07;;;17.60;99.90;;;-144.05;87.43;125687.94;6110969;23;20065;-87
2022/06/30 05:05:11;;;;;;;15.43;13.48;;;17.80;99.90;;;-144.05;86.80;125687.94;6110957;23;20063;-85
2022/06/30 05:07:37;;;;;;;15.93;13.15;;;18.00;99.90;;;-144.05;85.72;125687.94;6112297;23;20006;-85
2022/06/30 05:10:04;;;;;;;16.77;13.05;;;18.20;99.90;;;-144.05;84.85;125687.94;6110984;23;20005;-87
2022/06/30 05:12:30;;;;;;;15.45;12.77;;;18.40;99.90;;;-144.05;83.96;125687.94;6109881;23;20097;-87
2022/06/30 05:14:56;;;;;;;14.57;12.70;;;18.60;99.90;;;-144.05;82.49;125687.94;6136247;23;20014;-86
2022/06/30 05:17:22;;;;;;;17.88;14.45;;;18.90;99.90;;;-144.05;80.99;125687.94;6111210;23;20029;-85
2022/06/30 05:19:48;;;;;;;15.98;12.75;;;19.20;99.90;;;-144.05;79.23;125687.94;6111722;23;20006;-88
2022/06/30 05:22:14;;;;;;;13.90;12.13;;;19.40;99.90;;;-144.05;77.64;125687.94;6113598;23;20010;-89
2022/06/30 05:27:25;;;;;;;14.43;11.85;;;20.00;99.90;;;-144.05;75.16;125687.94;6134313;23;20024;-88
2022/06/30 05:29:52;;;;;;;14.85;11.93;;;20.30;99.90;;;-144.05;72.82;125687.94;6109902;23;20010;-89
2022/06/30 05:32:18;;;;;;;15.80;13.07;;;20.60;99.90;;;-144.05;71.62;125687.94;6109238;23;20010;-89
2022/06/30 05:34:44;;;;;;;15.93;11.68;;;20.90;99.90;;;-144.05;70.11;125687.94;6108621;23;20014;-86
2022/06/30 05:37:10;;;;;;;16.40;12.48;;;21.10;99.90;;;-144.05;69.40;125687.94;6108219;23;20360;-87
2022/06/30 05:39:36;;;;;;;15.57;12.32;;;21.30;99.90;;;-144.05;68.58;125687.94;6109674;23;20006;-88
2022/06/30 05:42:02;;;;;;;18.15;12.60;;;21.60;99.90;;;-144.05;67.41;125687.94;6109320;23;20010;-87
2022/06/30 05:44:29;;;;;;;15.05;11.82;;;21.90;99.90;;;-144.05;66.49;125687.94;6109729;23;20013;-87
2022/06/30 05:46:56;;;;;;;17.00;11.73;;;22.10;99.90;;;-144.05;65.59;125687.94;6110620;23;20065;-89
2022/06/30 05:49:24;;;;;;;14.80;11.68;;;22.40;99.90;;;-144.05;64.58;125687.94;6113323;23;20010;-86
2022/06/30 05:51:50;;;;;;;16.58;11.50;;;22.70;99.90;;;-144.05;63.70;125687.94;6107762;23;20017;-86
2022/06/30 05:54:16;;;;;;;16.05;11.57;;;23.00;99.90;;;-144.05;62.56;125687.94;6107332;23;20424;-88
2022/06/30 05:56:43;;;;;;;11.32;10.18;;;23.30;99.90;;;-144.05;61.55;125687.94;6106845;23;20086;-88
2022/06/30 05:59:09;;;;;;;12.57;9.70;;;23.50;99.90;;;-144.05;60.85;125687.94;6104142;23;20065;-88
2022/06/30 06:01:35;;;;;;;12.73;9.77;;;23.80;99.90;;;-144.05;59.30;125687.94;6130728;23;20005;-87
2022/06/30 06:04:01;;;;;;;11.60;9.45;;;23.90;99.90;;;-144.05;59.01;125687.94;6105547;23;20040;-87
2022/06/30 06:06:27;;;;;;;10.65;9.65;;;24.20;99.90;;;-144.05;58.17;125687.94;6106657;23;20010;-86
2022/06/30 06:08:53;;;;;;;10.27;9.30;;;24.40;99.90;;;-144.05;57.64;125687.94;6107720;23;20035;-87
2022/06/30 06:11:18;;;;;;;13.70;9.32;;;24.60;99.90;;;-144.05;56.18;125687.94;6107737;23;20010;-87
2022/06/30 06:13:44;;;;;;;11.43;9.20;;;24.80;99.90;;;-144.05;55.57;125687.94;6131304;23;20014;-88
2022/06/30 06:16:10;;;;;;;11.65;8.25;;;25.00;99.90;;;-144.05;54.60;125687.94;6108100;23;20025;-88
2022/06/30 06:18:36;;;;;;;10.45;9.20;;;25.20;99.90;;;-144.05;53.98;125687.94;6135034;23;20002;-87
2022/06/30 06:21:02;;;;;;;9.98;8.98;;;25.50;99.90;;;-144.05;53.12;125687.94;6109362;23;20002;-87
2022/06/30 06:23:28;;;;;;;11.27;9.02;;;25.70;99.90;;;-144.05;52.96;125687.94;6109469;23;20005;-87
2022/06/30 06:25:54;;;;;;;10.13;8.63;;;25.90;99.90;;;-144.05;52.23;125687.94;6109104;23;20009;-89
2022/06/30 06:31:05;;;;;;;8.70;7.67;;;26.40;99.90;;;-144.05;49.59;125687.94;6135126;23;20350;-87
2022/06/30 06:33:31;;;;;;;9.20;8.30;;;26.70;99.90;;;-144.05;48.96;125687.94;6118374;23;20014;-87
2022/06/30 06:35:57;;;;;;;8.93;8.02;;;26.90;99.90;;;-144.05;48.03;125687.94;6124192;23;20022;-87
2022/06/30 06:38:23;;;;;;;8.65;7.65;;;27.10;99.90;;;-144.05;47.72;125687.94;6123657;23;20010;-86
2022/06/30 06:40:49;;;;;;;11.60;8.27;;;27.30;99.90;;;-144.05;46.93;125687.94;6107422;23;20006;-88
2022/06/30 06:43:14;;;;;;;9.70;7.80;;;27.60;99.90;;;-144.05;46.54;125687.94;6108700;23;20002;-88
2022/06/30 06:45:41;;;;;;;8.45;7.65;;;27.70;99.90;;;-144.05;45.95;125687.94;6132269;23;20335;-87
2022/06/30 06:48:07;;;;;;;10.35;7.63;;;27.90;99.90;;;-144.05;45.06;125687.94;6111418;23;20088;-87
2022/06/30 06:50:33;;;;;;;8.00;7.22;;;28.00;99.90;;;-144.05;44.77;125687.94;6105123;23;20444;-86
2022/06/30 06:52:59;;;;;;;7.68;6.97;;;28.20;99.90;;;-144.05;43.74;125687.94;6127504;23;20444;-86
2022/06/30 06:55:25;;;;;;;8.07;7.25;;;28.40;99.90;;;-144.05;43.55;125687.94;6103216;23;20006;-86
2022/06/30 06:57:51;;;;;;;7.93;7.13;;;28.40;99.90;;;-144.05;43.18;125687.94;6102726;23;20149;-86
2022/06/30 07:00:18;;;;;;;8.10;7.30;;;28.60;99.90;;;-144.05;43.06;125687.94;6104052;23;20496;-86
2022/06/30 07:02:44;;;;;;;8.70;7.72;;;28.80;99.90;;;-144.05;42.70;125687.94;6103747;23;20002;-86
2022/06/30 07:05:10;;;;;;;9.30;7.28;;;29.00;99.90;;;-144.05;42.10;125687.94;6105164;23;20006;-87
2022/06/30 07:07:38;;;;;;;7.85;6.68;;;29.30;99.90;;;-144.05;42.10;125687.94;6129951;23;20044;-88
2022/06/30 07:10:07;;;;;;;9.50;7.28;;;29.40;99.90;;;-144.05;41.47;125687.94;6103955;23;20620;-87
2022/06/30 07:12:34;;;;;;;14.38;7.53;;;29.50;99.90;;;-144.05;41.70;125687.94;6127819;23;20017;-87
2022/06/30 07:15:00;;;;;;;10.85;7.68;;;29.40;99.90;;;-144.05;41.07;125687.94;6103333;23;20030;-87
2022/06/30 07:17:26;;;;;;;11.95;8.18;;;29.60;99.90;;;-144.05;41.27;125687.94;6104229;23;20137;-87
2022/06/30 07:19:52;;;;;;;11.48;6.78;;;29.80;99.90;;;-144.05;40.86;125687.94;6130158;23;20009;-88
2022/06/30 07:22:18;;;;;;;13.35;7.60;;;30.00;99.90;;;-144.05;40.05;125687.94;6105911;23;20383;-87
2022/06/30 07:24:45;;;;;;;8.73;7.10;;;30.10;99.90;;;-144.05;39.27;125687.94;6105273;23;20010;-87
2022/06/30 07:27:11;;;;;;;11.90;7.22;;;30.10;99.90;;;-144.05;38.91;125687.94;6106055;23;20246;-89
2022/06/30 07:29:37;;;;;;;10.10;7.03;;;30.40;99.90;;;-144.05;39.03;125687.94;6105799;23;20101;-90
2022/06/30 07:32:04;;;;;;;10.52;7.20;;;30.50;99.90;;;-144.05;38.36;125687.94;6117931;23;20058;-87
2022/06/30 07:34:30;;;;;;;12.90;8.02;;;30.40;99.90;;;-144.05;37.89;125687.94;6127562;23;20014;-88
2022/06/30 07:36:57;;;;;;;9.50;6.70;;;30.40;99.60;;;-144.05;38.13;125687.94;6127934;23;20066;-88
2022/06/30 07:39:23;;;;;;;11.60;7.22;;;30.60;99.90;;;-144.05;37.71;125687.94;6151672;23;20048;-88
2022/06/30 07:41:48;;;;;;;13.15;6.40;;;30.80;99.10;;;-144.05;36.97;125687.94;6151069;23;20018;-88
2022/06/30 07:44:14;;;;;;;13.68;6.15;;;30.80;97.20;;;-144.05;36.78;125687.94;6127621;23;20002;-88
2022/06/30 07:46:40;;;;;;;7.68;5.40;;;30.60;95.20;;;-144.05;37.39;125687.94;6127692;23;20010;-89
2022/06/30 07:49:06;;;;;;;7.38;5.97;;;30.80;97.30;;;-144.05;36.51;125687.94;6151670;23;20082;-89
2022/06/30 07:51:32;;;;;;;7.60;5.85;;;31.20;95.00;;;-144.05;36.06;125687.94;6121774;23;20045;-89
2022/06/30 07:53:58;;;;;;;7.75;4.50;;;31.50;93.70;;;-144.05;34.96;125687.94;6109515;23;20013;-89
2022/06/30 07:56:24;;;;;;;12.13;5.25;;;31.60;90.90;;;-144.05;33.87;125687.94;6132839;23;20041;-89
2022/06/30 07:58:50;;;;;;;8.82;4.57;;;31.80;85.90;;;-144.05;34.31;125687.94;6108899;23;20002;-87
2022/06/30 08:01:19;;;;;;;6.90;4.88;;;31.80;86.90;;;-144.05;33.60;125687.94;6107902;23;20459;-87
2022/06/30 08:03:46;;;;;;;7.28;5.13;;;31.60;81.60;;;-144.05;33.37;125687.94;6108072;23;20369;-88
2022/06/30 08:06:13;;;;;;;6.32;4.65;;;31.60;80.10;;;-144.05;33.70;125687.94;6107954;23;20089;-89
2022/06/30 08:08:41;;;;;;;5.80;4.65;;;31.60;80.80;;;-144.05;33.80;125687.94;6108019;23;20093;-89
2022/06/30 08:11:09;;;;;;;7.13;4.65;;;31.50;80.20;;;-144.05;34.17;125687.94;6108049;23;20010;-88
2022/06/30 08:13:35;;;;;;;4.93;3.35;;;31.80;82.00;;;-144.05;31.57;125687.94;6134725;23;20010;-89
2022/06/30 08:16:03;;;;;;;3.25;2.90;;;31.80;72.30;;;-144.05;31.63;125687.94;6107888;23;20009;-88
2022/06/30 08:18:29;;;;;;;3.95;3.03;;;32.20;74.50;;;-144.05;30.84;125687.94;6107601;23;20017;-88
2022/06/30 08:20:56;;;;;;;5.40;3.20;;;32.40;69.90;;;-144.05;30.10;125687.94;6129616;23;20029;-90
2022/06/30 08:23:23;;;;;;;4.40;3.30;;;32.20;66.50;;;-144.05;30.38;125687.94;6106632;23;20013;-87
2022/06/30 08:25:49;;;;;;;5.88;4.05;;;32.10;66.40;;;-144.05;31.76;125687.94;6107114;23;20061;-87
2022/06/30 08:28:15;;;;;;;4.88;3.83;;;32.00;70.20;;;-144.05;31.41;125687.94;6106929;23;20006;-87
2022/06/30 08:30:41;;;;;;;7.60;4.53;;;32.00;69.00;;;-144.05;32.02;125687.94;6106642;23;20013;-87
2022/06/30 08:33:11;;;;;;;5.70;4.38;;;32.00;71.50;;;-144.05;31.82;125687.94;6107221;23;20025;-87
2022/06/30 08:35:37;;;;;;;7.18;4.07;;;32.40;71.00;;;-144.05;32.33;125687.94;6106595;23;20017;-87
2022/06/30 08:38:03;;;;;;;6.32;4.20;;;32.60;72.70;;;-144.05;31.80;125687.94;6106945;23;20429;-89
2022/06/30 08:43:14;;;;;;;5.10;3.92;;;32.90;67.80;;;-144.05;30.20;125687.94;6133829;23;20061;-88
2022/06/30 08:45:44;;;;;;;4.30;2.80;;;32.90;67.20;;;-144.05;30.22;125687.94;6133477;23;20014;-88
2022/06/30 08:48:10;;;;;;;3.60;2.60;;;33.00;65.90;;;-144.05;29.69;125687.94;6109513;23;20384;-87
2022/06/30 08:50:41;;;;;;;5.22;2.53;;;33.30;64.00;;;-144.05;28.91;125687.94;6133500;23;20042;-89
2022/06/30 08:53:10;;;;;;;3.90;2.80;;;33.50;61.20;;;-144.05;28.08;125687.94;6110102;23;20010;-89
2022/06/30 08:55:38;;;;;;;4.07;2.67;;;33.60;59.00;;;-144.05;28.93;125687.94;6109555;23;20021;-87
2022/06/30 08:58:08;;;;;;;7.78;3.15;;;33.20;59.80;;;-144.05;29.10;125687.94;6134744;23;20005;-86
2022/06/30 09:00:38;;;;;;;4.53;2.67;;;33.20;60.10;;;-144.05;28.83;125687.94;6113147;23;20013;-89
2022/06/30 09:03:05;;;;;;;4.60;2.72;;;33.30;59.50;;;-144.05;28.31;125687.94;6107959;23;20092;-87
2022/06/30 09:05:32;;;;;;;6.47;3.08;;;33.60;59.20;;;-144.05;28.33;125687.94;6106945;23;20014;-87
2022/06/30 09:07:58;;;;;;;4.93;2.45;;;33.70;59.10;;;-144.05;27.16;125687.94;6133872;23;20006;-87
2022/06/30 09:10:25;;;;;;;5.35;3.22;;;33.30;54.90;;;-144.05;28.18;125687.94;6107528;23;20089;-87
2022/06/30 09:13:03;;;;;;;4.10;2.53;;;33.50;57.90;;;-144.05;27.34;125687.94;6108327;23;20010;-87
2022/06/30 09:15:39;;;;;;;3.90;2.78;;;33.40;55.50;;;-144.05;27.95;125687.94;6132448;23;20010;-87
2022/06/30 09:18:06;;;;;;;4.82;2.92;;;33.50;56.80;;;-144.05;27.78;125687.94;6132058;23;20349;-86
2022/06/30 09:20:39;;;;;;;4.07;2.50;;;33.60;55.60;;;-144.05;28.07;125687.94;6107247;23;20010;-88
2022/06/30 09:23:26;;;;;;;4.20;2.80;;;33.70;57.00;;;-144.05;27.33;125687.94;6107438;23;20016;-87
2022/06/30 09:26:00;;;;;;;5.68;2.72;;;33.60;54.40;;;-144.05;27.74;125687.94;6131121;23;20429;-87
2022/06/30 09:28:54;;;;;;;4.63;2.50;;;33.80;56.00;;;-144.05;27.02;125687.94;6131342;23;20419;-89
2022/06/30 09:31:55;;;;;;;5.18;2.60;;;33.70;54.50;;;-144.05;27.45;125687.94;6131922;23;20025;-87
2022/06/30 09:34:22;;;;;;;4.18;2.15;;;33.40;55.00;;;-144.05;27.14;125687.94;6076224;23;20047;-89
2022/06/30 09:36:53;;;;;;;5.95;1.88;;;33.50;54.00;;;-144.05;26.92;125687.94;6107455;23;20014;-88
2022/06/30 16:22:45;;;;;;;4.18;3.20;;;31.20;56.40;;;-144.05;29.79;125687.94;6117780;23;20037;-91
2022/06/30 16:43:22;;;;;;;;;;;;;;;;;;;;;
2022/06/30 17:39:37;;;;;;;32.15;22.75;;;28.50;60.30;;;-144.05;33.06;125687.94;5936855;24;20167;-91
2022/06/30 18:03:15;;;;;;;6.60;3.33;;;21.80;99.90;;;-144.05;73.28;125687.94;5592244;25;20174;-89
2022/06/30 18:11:14;;;;;;;9.25;3.00;;;21.30;99.90;;;-144.05;74.88;125687.94;5622476;25;20017;-92
2022/06/30 18:14:32;;;;;;;6.47;4.13;;;20.80;99.90;;;-144.05;78.30;125687.94;5640751;25;20486;-91
2022/06/30 18:17:36;;;;;;;7.85;4.28;;;20.60;99.90;;;-144.05;79.29;125687.94;5668980;25;20029;-91
2022/06/30 18:20:25;;;;;;;5.57;4.32;;;20.40;99.90;;;-144.05;79.67;125687.94;5641053;25;20033;-90
2022/06/30 18:23:22;;;;;;;10.60;6.82;;;20.20;99.90;;;-144.05;81.25;125687.94;5834943;23;20015;-91
2022/06/30 18:25:56;;;;;;;14.90;9.57;;;20.00;99.90;;;-144.05;81.21;125687.94;6033254;23;20062;-92
2022/06/30 18:29:22;;;;;;;13.73;11.05;;;19.90;99.90;;;-144.05;82.62;125687.94;6032553;23;20016;-91
2022/06/30 18:32:15;;;;;;;13.73;11.20;;;19.90;99.90;;;-144.05;84.42;125687.94;5996748;23;20047;-90
2022/06/30 18:35:07;;;;;;;14.75;13.30;;;19.70;99.90;;;-144.05;82.95;125687.94;6013457;23;20038;-91
2022/06/30 18:37:48;;;;;;;14.45;12.98;;;19.60;99.90;;;-144.05;83.02;125687.94;6011924;23;20016;-90